sensor_id;sensor_type;location;lat;lon;timestamp;temperature;humidity
16970;DHT22;8601;48.718;8.992;2023-11-21T00:01:18;7.60;99.90
16970;DHT22;8601;48.718;8.992;2023-11-21T00:03:44;7.60;99.90
16970;DHT22;8601;48.718;8.992;2023-11-21T00:06:13;7.60;99.90
16970;DHT22;8601;48.718;8.992;2023-11-21T00:08:40;7.60;99.90
16970;DHT22;8601;48.718;8.992;2023-11-21T00:11:07;7.70;99.90
16970;DHT22;8601;48.718;8.992;2023-11-21T00:13:33;7.70;99.90
16970;DHT22;8601;48.718;8.992;2023-11-21T00:16:00;7.70;99.90
16970;DHT22;8601;48.718;8.992;2023-11-21T00:18:27;7.80;99.90
16970;DHT22;8601;48.718;8.992;2023-11-21T00:20:54;7.70;99.90
16970;DHT22;8601;48.718;8.992;2023-11-21T00:23:23;7.70;99.90
16970;DHT22;8601;48.718;8.992;2023-11-21T00:25:50;7.70;99.90
16970;DHT22;8601;48.718;8.992;2023-11-21T00:28:16;7.70;99.90
16970;DHT22;8601;48.718;8.992;2023-11-21T00:30:43;7.70;99.90
16970;DHT22;8601;48.718;8.992;2023-11-21T00:33:10;7.80;99.90
16970;DHT22;8601;48.718;8.992;2023-11-21T00:35:37;7.80;99.90
16970;DHT22;8601;48.718;8.992;2023-11-21T00:38:04;7.70;99.90
16970;DHT22;8601;48.718;8.992;2023-11-21T00:40:32;7.80;99.90
16970;DHT22;8601;48.718;8.992;2023-11-21T00:42:59;7.80;99.90
16970;DHT22;8601;48.718;8.992;2023-11-21T00:45:26;7.80;99.90
16970;DHT22;8601;48.718;8.992;2023-11-21T00:47:54;7.70;99.90
16970;DHT22;8601;48.718;8.992;2023-11-21T00:50:21;7.70;99.90
16970;DHT22;8601;48.718;8.992;2023-11-21T00:52:48;7.70;99.90
16970;DHT22;8601;48.718;8.992;2023-11-21T00:55:17;7.60;99.90
16970;DHT22;8601;48.718;8.992;2023-11-21T00:57:45;7.60;99.90
16970;DHT22;8601;48.718;8.992;2023-11-21T01:00:12;7.70;99.90
16970;DHT22;8601;48.718;8.992;2023-11-21T01:02:42;7.70;99.90
16970;DHT22;8601;48.718;8.992;2023-11-21T01:05:09;7.70;99.90
16970;DHT22;8601;48.718;8.992;2023-11-21T01:07:36;7.70;99.90
16970;DHT22;8601;48.718;8.992;2023-11-21T01:10:04;7.70;99.90
16970;DHT22;8601;48.718;8.992;2023-11-21T01:12:34;7.70;99.90
16970;DHT22;8601;48.718;8.992;2023-11-21T01:15:03;7.70;99.90
16970;DHT22;8601;48.718;8.992;2023-11-21T01:17:30;7.70;99.90
16970;DHT22;8601;48.718;8.992;2023-11-21T01:19:57;7.70;99.90
16970;DHT22;8601;48.718;8.992;2023-11-21T01:22:25;7.70;99.90
16970;DHT22;8601;48.718;8.992;2023-11-21T01:24:53;7.70;99.90
16970;DHT22;8601;48.718;8.992;2023-11-21T01:27:22;7.70;99.90
16970;DHT22;8601;48.718;8.992;2023-11-21T01:29:49;7.60;99.90
16970;DHT22;8601;48.718;8.992;2023-11-21T01:32:20;7.70;99.90
16970;DHT22;8601;48.718;8.992;2023-11-21T01:34:47;7.60;99.90
16970;DHT22;8601;48.718;8.992;2023-11-21T01:37:14;7.70;99.90
16970;DHT22;8601;48.718;8.992;2023-11-21T01:39:42;7.70;99.90
16970;DHT22;8601;48.718;8.992;2023-11-21T01:42:09;7.70;99.90
16970;DHT22;8601;48.718;8.992;2023-11-21T01:44:36;7.60;99.90
16970;DHT22;8601;48.718;8.992;2023-11-21T01:47:04;7.70;99.90
16970;DHT22;8601;48.718;8.992;2023-11-21T01:49:33;7.60;99.90
16970;DHT22;8601;48.718;8.992;2023-11-21T01:52:00;7.60;99.90
16970;DHT22;8601;48.718;8.992;2023-11-21T01:54:29;7.60;99.90
16970;DHT22;8601;48.718;8.992;2023-11-21T01:56:57;7.70;99.90
16970;DHT22;8601;48.718;8.992;2023-11-21T01:59:29;7.60;99.90
16970;DHT22;8601;48.718;8.992;2023-11-21T02:01:58;7.60;99.90
16970;DHT22;8601;48.718;8.992;2023-11-21T02:04:26;7.60;99.90
16970;DHT22;8601;48.718;8.992;2023-11-21T02:06:54;7.60;99.90
16970;DHT22;8601;48.718;8.992;2023-11-21T02:09:25;7.60;99.90
16970;DHT22;8601;48.718;8.992;2023-11-21T02:11:52;7.60;99.90
16970;DHT22;8601;48.718;8.992;2023-11-21T02:14:20;7.60;99.90
16970;DHT22;8601;48.718;8.992;2023-11-21T02:16:47;7.50;99.90
16970;DHT22;8601;48.718;8.992;2023-11-21T02:19:17;7.50;99.90
16970;DHT22;8601;48.718;8.992;2023-11-21T02:21:45;7.50;99.90
16970;DHT22;8601;48.718;8.992;2023-11-21T02:24:15;7.50;99.90
16970;DHT22;8601;48.718;8.992;2023-11-21T02:26:43;7.50;99.90
16970;DHT22;8601;48.718;8.992;2023-11-21T02:29:11;7.40;99.90
16970;DHT22;8601;48.718;8.992;2023-11-21T02:31:39;7.50;99.90
16970;DHT22;8601;48.718;8.992;2023-11-21T02:34:13;7.50;99.90
16970;DHT22;8601;48.718;8.992;2023-11-21T02:36:40;7.50;99.90
16970;DHT22;8601;48.718;8.992;2023-11-21T02:39:08;7.40;99.90
16970;DHT22;8601;48.718;8.992;2023-11-21T02:41:36;7.40;99.90
16970;DHT22;8601;48.718;8.992;2023-11-21T02:44:04;7.40;99.90
16970;DHT22;8601;48.718;8.992;2023-11-21T02:46:32;7.30;99.90
16970;DHT22;8601;48.718;8.992;2023-11-21T02:49:01;7.40;99.90
16970;DHT22;8601;48.718;8.992;2023-11-21T02:51:28;7.40;99.90
16970;DHT22;8601;48.718;8.992;2023-11-21T02:53:55;7.40;99.90
16970;DHT22;8601;48.718;8.992;2023-11-21T02:56:24;7.40;99.90
16970;DHT22;8601;48.718;8.992;2023-11-21T02:58:55;7.40;99.90
16970;DHT22;8601;48.718;8.992;2023-11-21T03:01:22;7.30;99.90
16970;DHT22;8601;48.718;8.992;2023-11-21T03:03:50;7.30;99.90
16970;DHT22;8601;48.718;8.992;2023-11-21T03:06:17;7.30;99.90
16970;DHT22;8601;48.718;8.992;2023-11-21T03:08:44;7.30;99.90
16970;DHT22;8601;48.718;8.992;2023-11-21T03:11:11;7.20;99.90
16970;DHT22;8601;48.718;8.992;2023-11-21T03:13:38;7.20;99.90
16970;DHT22;8601;48.718;8.992;2023-11-21T03:16:08;7.20;99.90
16970;DHT22;8601;48.718;8.992;2023-11-21T03:18:35;7.20;99.90
16970;DHT22;8601;48.718;8.992;2023-11-21T03:21:03;7.20;99.90
16970;DHT22;8601;48.718;8.992;2023-11-21T03:23:30;7.20;99.90
16970;DHT22;8601;48.718;8.992;2023-11-21T03:25:57;7.20;99.90
16970;DHT22;8601;48.718;8.992;2023-11-21T03:28:26;7.30;99.90
16970;DHT22;8601;48.718;8.992;2023-11-21T03:30:53;7.20;99.90
16970;DHT22;8601;48.718;8.992;2023-11-21T03:33:23;7.30;99.90
16970;DHT22;8601;48.718;8.992;2023-11-21T03:35:49;7.30;99.90
16970;DHT22;8601;48.718;8.992;2023-11-21T03:38:18;7.30;99.90
16970;DHT22;8601;48.718;8.992;2023-11-21T03:40:45;7.30;99.90
16970;DHT22;8601;48.718;8.992;2023-11-21T03:43:12;7.30;99.90
16970;DHT22;8601;48.718;8.992;2023-11-21T03:45:39;7.40;99.90
16970;DHT22;8601;48.718;8.992;2023-11-21T03:48:07;7.40;99.90
16970;DHT22;8601;48.718;8.992;2023-11-21T03:50:35;7.30;99.90
16970;DHT22;8601;48.718;8.992;2023-11-21T03:53:02;7.30;99.90
16970;DHT22;8601;48.718;8.992;2023-11-21T03:55:29;7.30;99.90
16970;DHT22;8601;48.718;8.992;2023-11-21T03:57:57;7.30;99.90
16970;DHT22;8601;48.718;8.992;2023-11-21T04:00:24;7.30;99.90
16970;DHT22;8601;48.718;8.992;2023-11-21T04:02:52;7.30;99.90
16970;DHT22;8601;48.718;8.992;2023-11-21T04:05:20;7.30;99.90
16970;DHT22;8601;48.718;8.992;2023-11-21T04:07:49;7.30;99.90
16970;DHT22;8601;48.718;8.992;2023-11-21T04:10:16;7.30;99.90
16970;DHT22;8601;48.718;8.992;2023-11-21T04:12:44;7.30;99.90
16970;DHT22;8601;48.718;8.992;2023-11-21T04:15:11;7.30;99.90
16970;DHT22;8601;48.718;8.992;2023-11-21T04:17:38;7.30;99.90
16970;DHT22;8601;48.718;8.992;2023-11-21T04:20:08;7.30;99.90
16970;DHT22;8601;48.718;8.992;2023-11-21T04:22:36;7.20;99.90
16970;DHT22;8601;48.718;8.992;2023-11-21T04:25:08;7.20;99.90
16970;DHT22;8601;48.718;8.992;2023-11-21T04:27:35;7.20;99.90
16970;DHT22;8601;48.718;8.992;2023-11-21T04:30:03;7.20;99.90
16970;DHT22;8601;48.718;8.992;2023-11-21T04:32:30;7.30;99.90
16970;DHT22;8601;48.718;8.992;2023-11-21T04:34:57;7.20;99.90
16970;DHT22;8601;48.718;8.992;2023-11-21T04:37:24;7.30;99.90
16970;DHT22;8601;48.718;8.992;2023-11-21T04:39:51;7.30;99.90
16970;DHT22;8601;48.718;8.992;2023-11-21T04:42:19;7.30;99.90
16970;DHT22;8601;48.718;8.992;2023-11-21T04:44:46;7.30;99.90
16970;DHT22;8601;48.718;8.992;2023-11-21T04:47:13;7.30;99.90
16970;DHT22;8601;48.718;8.992;2023-11-21T04:49:42;7.30;99.90
16970;DHT22;8601;48.718;8.992;2023-11-21T04:52:09;7.20;99.90
16970;DHT22;8601;48.718;8.992;2023-11-21T04:54:36;7.20;99.90
16970;DHT22;8601;48.718;8.992;2023-11-21T04:57:03;7.20;99.90
16970;DHT22;8601;48.718;8.992;2023-11-21T04:59:34;7.20;99.90
16970;DHT22;8601;48.718;8.992;2023-11-21T05:02:00;7.20;99.90
16970;DHT22;8601;48.718;8.992;2023-11-21T05:04:28;7.20;99.90
16970;DHT22;8601;48.718;8.992;2023-11-21T05:06:55;7.20;99.90
16970;DHT22;8601;48.718;8.992;2023-11-21T05:09:22;7.20;99.90
16970;DHT22;8601;48.718;8.992;2023-11-21T05:11:49;7.20;99.90
16970;DHT22;8601;48.718;8.992;2023-11-21T05:14:15;7.20;99.90
16970;DHT22;8601;48.718;8.992;2023-11-21T05:16:45;7.10;99.90
16970;DHT22;8601;48.718;8.992;2023-11-21T05:19:13;7.10;99.90
16970;DHT22;8601;48.718;8.992;2023-11-21T05:21:40;7.10;99.90
16970;DHT22;8601;48.718;8.992;2023-11-21T05:24:07;7.10;99.90
16970;DHT22;8601;48.718;8.992;2023-11-21T05:26:34;7.10;99.90
16970;DHT22;8601;48.718;8.992;2023-11-21T05:29:01;7.10;99.90
16970;DHT22;8601;48.718;8.992;2023-11-21T05:31:28;7.10;99.90
16970;DHT22;8601;48.718;8.992;2023-11-21T05:33:56;7.00;99.90
16970;DHT22;8601;48.718;8.992;2023-11-21T05:36:24;7.10;99.90
16970;DHT22;8601;48.718;8.992;2023-11-21T05:38:50;7.00;99.90
16970;DHT22;8601;48.718;8.992;2023-11-21T05:41:16;7.00;99.90
16970;DHT22;8601;48.718;8.992;2023-11-21T05:43:43;7.10;99.90
16970;DHT22;8601;48.718;8.992;2023-11-21T05:46:10;7.00;99.90
16970;DHT22;8601;48.718;8.992;2023-11-21T05:48:37;7.00;99.90
16970;DHT22;8601;48.718;8.992;2023-11-21T05:51:06;6.90;99.90
16970;DHT22;8601;48.718;8.992;2023-11-21T05:53:33;7.00;99.90
16970;DHT22;8601;48.718;8.992;2023-11-21T05:56:01;7.00;99.90
16970;DHT22;8601;48.718;8.992;2023-11-21T05:58:29;7.00;99.90
16970;DHT22;8601;48.718;8.992;2023-11-21T06:00:56;7.00;99.90
16970;DHT22;8601;48.718;8.992;2023-11-21T06:03:23;7.00;99.90
16970;DHT22;8601;48.718;8.992;2023-11-21T06:05:50;7.00;99.90
16970;DHT22;8601;48.718;8.992;2023-11-21T06:08:18;7.00;99.90
16970;DHT22;8601;48.718;8.992;2023-11-21T06:10:45;6.90;99.90
16970;DHT22;8601;48.718;8.992;2023-11-21T06:13:15;7.00;99.90
16970;DHT22;8601;48.718;8.992;2023-11-21T06:15:41;6.90;99.90
16970;DHT22;8601;48.718;8.992;2023-11-21T06:18:08;6.90;99.90
16970;DHT22;8601;48.718;8.992;2023-11-21T06:20:36;6.90;99.90
16970;DHT22;8601;48.718;8.992;2023-11-21T06:23:04;7.00;99.90
16970;DHT22;8601;48.718;8.992;2023-11-21T06:25:33;7.00;99.90
16970;DHT22;8601;48.718;8.992;2023-11-21T06:28:02;7.00;99.90
16970;DHT22;8601;48.718;8.992;2023-11-21T06:30:28;7.00;99.90
16970;DHT22;8601;48.718;8.992;2023-11-21T06:32:56;6.90;99.90
16970;DHT22;8601;48.718;8.992;2023-11-21T06:35:23;7.00;99.90
16970;DHT22;8601;48.718;8.992;2023-11-21T06:37:50;7.00;99.90
16970;DHT22;8601;48.718;8.992;2023-11-21T06:40:18;7.00;99.90
16970;DHT22;8601;48.718;8.992;2023-11-21T06:42:46;7.10;99.90
16970;DHT22;8601;48.718;8.992;2023-11-21T06:45:13;7.10;99.90
16970;DHT22;8601;48.718;8.992;2023-11-21T06:47:40;7.10;99.90
16970;DHT22;8601;48.718;8.992;2023-11-21T06:50:08;7.20;99.90
16970;DHT22;8601;48.718;8.992;2023-11-21T06:52:35;7.20;99.90
16970;DHT22;8601;48.718;8.992;2023-11-21T06:55:02;7.20;99.90
16970;DHT22;8601;48.718;8.992;2023-11-21T06:57:29;7.20;99.90
16970;DHT22;8601;48.718;8.992;2023-11-21T06:59:57;7.20;99.90
16970;DHT22;8601;48.718;8.992;2023-11-21T07:02:24;7.20;99.90
16970;DHT22;8601;48.718;8.992;2023-11-21T07:04:51;7.20;99.90
16970;DHT22;8601;48.718;8.992;2023-11-21T07:07:18;7.20;99.90
16970;DHT22;8601;48.718;8.992;2023-11-21T07:09:45;7.30;99.90
16970;DHT22;8601;48.718;8.992;2023-11-21T07:12:13;7.30;99.90
16970;DHT22;8601;48.718;8.992;2023-11-21T07:14:40;7.30;99.90
16970;DHT22;8601;48.718;8.992;2023-11-21T07:17:10;9.70;99.90
16970;DHT22;8601;48.718;8.992;2023-11-21T07:19:37;9.60;99.90
16970;DHT22;8601;48.718;8.992;2023-11-21T07:22:04;8.90;99.90
16970;DHT22;8601;48.718;8.992;2023-11-21T07:24:32;8.50;99.90
16970;DHT22;8601;48.718;8.992;2023-11-21T07:26:58;8.20;99.90
16970;DHT22;8601;48.718;8.992;2023-11-21T07:29:26;8.00;99.90
16970;DHT22;8601;48.718;8.992;2023-11-21T07:31:55;7.90;99.90
16970;DHT22;8601;48.718;8.992;2023-11-21T07:34:23;7.70;99.90
16970;DHT22;8601;48.718;8.992;2023-11-21T07:36:50;7.60;99.90
16970;DHT22;8601;48.718;8.992;2023-11-21T07:39:17;7.60;99.90
16970;DHT22;8601;48.718;8.992;2023-11-21T07:41:44;7.60;99.90
16970;DHT22;8601;48.718;8.992;2023-11-21T07:44:14;7.60;99.90
16970;DHT22;8601;48.718;8.992;2023-11-21T07:46:41;7.50;99.90
16970;DHT22;8601;48.718;8.992;2023-11-21T07:49:08;7.60;99.90
16970;DHT22;8601;48.718;8.992;2023-11-21T07:51:36;7.60;99.90
16970;DHT22;8601;48.718;8.992;2023-11-21T07:54:03;7.60;99.90
16970;DHT22;8601;48.718;8.992;2023-11-21T07:56:31;7.60;99.90
16970;DHT22;8601;48.718;8.992;2023-11-21T07:58:57;7.50;99.90
16970;DHT22;8601;48.718;8.992;2023-11-21T08:01:24;7.60;99.90
16970;DHT22;8601;48.718;8.992;2023-11-21T08:03:53;7.50;99.90
16970;DHT22;8601;48.718;8.992;2023-11-21T08:06:22;7.60;99.90
16970;DHT22;8601;48.718;8.992;2023-11-21T08:08:50;7.50;99.90
16970;DHT22;8601;48.718;8.992;2023-11-21T08:11:17;7.40;99.90
16970;DHT22;8601;48.718;8.992;2023-11-21T08:13:45;7.40;99.90
16970;DHT22;8601;48.718;8.992;2023-11-21T08:16:12;7.50;99.90
16970;DHT22;8601;48.718;8.992;2023-11-21T08:18:39;7.60;99.90
16970;DHT22;8601;48.718;8.992;2023-11-21T08:21:06;7.60;99.90
16970;DHT22;8601;48.718;8.992;2023-11-21T08:23:33;7.60;99.90
16970;DHT22;8601;48.718;8.992;2023-11-21T08:26:02;7.60;99.90
16970;DHT22;8601;48.718;8.992;2023-11-21T08:28:29;7.80;99.90
16970;DHT22;8601;48.718;8.992;2023-11-21T08:30:56;7.70;99.90
16970;DHT22;8601;48.718;8.992;2023-11-21T08:33:22;7.70;99.90
16970;DHT22;8601;48.718;8.992;2023-11-21T08:35:49;7.70;99.90
16970;DHT22;8601;48.718;8.992;2023-11-21T08:38:16;7.80;99.90
16970;DHT22;8601;48.718;8.992;2023-11-21T08:40:44;7.80;99.90
16970;DHT22;8601;48.718;8.992;2023-11-21T08:43:12;7.80;99.90
16970;DHT22;8601;48.718;8.992;2023-11-21T08:45:40;7.70;99.90
16970;DHT22;8601;48.718;8.992;2023-11-21T08:48:07;7.70;99.90
16970;DHT22;8601;48.718;8.992;2023-11-21T08:50:34;7.80;99.90
16970;DHT22;8601;48.718;8.992;2023-11-21T08:53:00;7.90;99.90
16970;DHT22;8601;48.718;8.992;2023-11-21T08:55:27;7.90;99.90
16970;DHT22;8601;48.718;8.992;2023-11-21T08:57:54;7.90;99.90
16970;DHT22;8601;48.718;8.992;2023-11-21T09:00:22;7.90;99.90
16970;DHT22;8601;48.718;8.992;2023-11-21T09:02:49;8.00;99.90
16970;DHT22;8601;48.718;8.992;2023-11-21T09:05:16;8.00;99.90
16970;DHT22;8601;48.718;8.992;2023-11-21T09:07:44;8.00;99.90
16970;DHT22;8601;48.718;8.992;2023-11-21T09:10:14;8.00;99.90
16970;DHT22;8601;48.718;8.992;2023-11-21T09:12:41;8.00;99.90
16970;DHT22;8601;48.718;8.992;2023-11-21T09:15:09;8.00;99.90
16970;DHT22;8601;48.718;8.992;2023-11-21T09:17:38;8.10;99.90
16970;DHT22;8601;48.718;8.992;2023-11-21T09:20:07;8.10;99.90
16970;DHT22;8601;48.718;8.992;2023-11-21T09:22:35;8.20;99.90
16970;DHT22;8601;48.718;8.992;2023-11-21T09:25:02;8.20;99.90
16970;DHT22;8601;48.718;8.992;2023-11-21T09:27:30;8.20;99.90
16970;DHT22;8601;48.718;8.992;2023-11-21T09:29:57;8.30;99.90
16970;DHT22;8601;48.718;8.992;2023-11-21T09:32:24;8.30;99.90
16970;DHT22;8601;48.718;8.992;2023-11-21T09:34:52;8.30;99.90
16970;DHT22;8601;48.718;8.992;2023-11-21T09:37:21;8.30;99.90
16970;DHT22;8601;48.718;8.992;2023-11-21T09:39:47;8.20;99.90
16970;DHT22;8601;48.718;8.992;2023-11-21T09:42:23;8.10;99.90
16970;DHT22;8601;48.718;8.992;2023-11-21T09:44:56;8.10;99.90
16970;DHT22;8601;48.718;8.992;2023-11-21T09:47:27;8.10;99.90
16970;DHT22;8601;48.718;8.992;2023-11-21T09:49:56;8.10;99.90
16970;DHT22;8601;48.718;8.992;2023-11-21T09:52:27;8.10;99.90
16970;DHT22;8601;48.718;8.992;2023-11-21T09:54:55;8.10;99.90
16970;DHT22;8601;48.718;8.992;2023-11-21T09:57:23;8.10;99.90
16970;DHT22;8601;48.718;8.992;2023-11-21T09:59:52;8.10;99.90
16970;DHT22;8601;48.718;8.992;2023-11-21T10:02:22;8.10;99.90
16970;DHT22;8601;48.718;8.992;2023-11-21T10:04:51;8.20;99.90
16970;DHT22;8601;48.718;8.992;2023-11-21T10:07:20;8.10;99.90
16970;DHT22;8601;48.718;8.992;2023-11-21T10:09:48;8.10;99.90
16970;DHT22;8601;48.718;8.992;2023-11-21T10:12:15;8.20;99.90
16970;DHT22;8601;48.718;8.992;2023-11-21T10:14:43;8.20;99.90
16970;DHT22;8601;48.718;8.992;2023-11-21T10:17:14;8.20;99.90
16970;DHT22;8601;48.718;8.992;2023-11-21T10:19:46;8.20;99.90
16970;DHT22;8601;48.718;8.992;2023-11-21T10:22:14;8.20;99.90
16970;DHT22;8601;48.718;8.992;2023-11-21T10:24:43;8.30;99.90
16970;DHT22;8601;48.718;8.992;2023-11-21T10:27:10;8.30;99.90
16970;DHT22;8601;48.718;8.992;2023-11-21T10:29:39;8.40;99.90
16970;DHT22;8601;48.718;8.992;2023-11-21T10:32:07;8.40;99.90
16970;DHT22;8601;48.718;8.992;2023-11-21T10:34:35;8.30;99.90
16970;DHT22;8601;48.718;8.992;2023-11-21T10:37:11;8.20;99.90
16970;DHT22;8601;48.718;8.992;2023-11-21T10:39:39;8.20;99.90
16970;DHT22;8601;48.718;8.992;2023-11-21T10:42:08;8.20;99.90
16970;DHT22;8601;48.718;8.992;2023-11-21T10:44:35;8.20;99.90
16970;DHT22;8601;48.718;8.992;2023-11-21T10:47:03;8.20;99.90
16970;DHT22;8601;48.718;8.992;2023-11-21T10:49:32;8.20;99.90
16970;DHT22;8601;48.718;8.992;2023-11-21T10:51:59;8.30;99.90
16970;DHT22;8601;48.718;8.992;2023-11-21T10:54:26;8.30;99.90
16970;DHT22;8601;48.718;8.992;2023-11-21T10:56:56;8.10;99.90
16970;DHT22;8601;48.718;8.992;2023-11-21T10:59:26;8.10;99.90
16970;DHT22;8601;48.718;8.992;2023-11-21T11:01:57;8.10;99.90
16970;DHT22;8601;48.718;8.992;2023-11-21T11:04:27;8.20;99.90
16970;DHT22;8601;48.718;8.992;2023-11-21T11:06:56;8.20;99.90
16970;DHT22;8601;48.718;8.992;2023-11-21T11:09:24;8.30;99.90
16970;DHT22;8601;48.718;8.992;2023-11-21T11:11:51;8.30;99.90
16970;DHT22;8601;48.718;8.992;2023-11-21T11:14:19;8.40;99.90
16970;DHT22;8601;48.718;8.992;2023-11-21T11:16:54;8.50;99.90
16970;DHT22;8601;48.718;8.992;2023-11-21T11:19:21;8.50;99.90
16970;DHT22;8601;48.718;8.992;2023-11-21T11:21:56;8.40;99.90
16970;DHT22;8601;48.718;8.992;2023-11-21T11:24:50;8.40;99.90
16970;DHT22;8601;48.718;8.992;2023-11-21T11:27:33;8.40;99.90
16970;DHT22;8601;48.718;8.992;2023-11-21T11:30:11;8.50;99.90
16970;DHT22;8601;48.718;8.992;2023-11-21T11:32:51;8.50;99.90
16970;DHT22;8601;48.718;8.992;2023-11-21T11:35:30;8.60;99.90
16970;DHT22;8601;48.718;8.992;2023-11-21T11:38:01;8.70;99.90
16970;DHT22;8601;48.718;8.992;2023-11-21T11:40:39;8.60;99.90
16970;DHT22;8601;48.718;8.992;2023-11-21T11:43:06;8.60;99.90
16970;DHT22;8601;48.718;8.992;2023-11-21T11:45:34;8.60;99.90
16970;DHT22;8601;48.718;8.992;2023-11-21T11:48:10;8.60;99.90
16970;DHT22;8601;48.718;8.992;2023-11-21T11:50:42;8.70;99.90
16970;DHT22;8601;48.718;8.992;2023-11-21T11:53:34;8.80;99.90
16970;DHT22;8601;48.718;8.992;2023-11-21T11:56:21;8.70;99.90
16970;DHT22;8601;48.718;8.992;2023-11-21T12:01:32;8.70;99.90
16970;DHT22;8601;48.718;8.992;2023-11-21T12:04:23;8.70;99.90
16970;DHT22;8601;48.718;8.992;2023-11-21T12:06:51;8.80;99.90
16970;DHT22;8601;48.718;8.992;2023-11-21T12:09:18;8.80;99.90
16970;DHT22;8601;48.718;8.992;2023-11-21T12:11:47;8.80;99.90
16970;DHT22;8601;48.718;8.992;2023-11-21T12:14:15;8.80;99.90
16970;DHT22;8601;48.718;8.992;2023-11-21T12:16:43;8.70;99.90
16970;DHT22;8601;48.718;8.992;2023-11-21T12:19:11;8.80;99.90
16970;DHT22;8601;48.718;8.992;2023-11-21T12:21:38;9.80;99.90
16970;DHT22;8601;48.718;8.992;2023-11-21T12:24:07;9.50;99.90
16970;DHT22;8601;48.718;8.992;2023-11-21T12:26:34;9.40;99.90
16970;DHT22;8601;48.718;8.992;2023-11-21T12:29:01;9.30;99.90
16970;DHT22;8601;48.718;8.992;2023-11-21T12:31:30;9.40;99.90
16970;DHT22;8601;48.718;8.992;2023-11-21T12:33:58;9.40;99.90
16970;DHT22;8601;48.718;8.992;2023-11-21T12:36:26;9.50;99.90
16970;DHT22;8601;48.718;8.992;2023-11-21T12:38:54;9.40;99.90
16970;DHT22;8601;48.718;8.992;2023-11-21T12:41:21;9.30;99.90
16970;DHT22;8601;48.718;8.992;2023-11-21T12:43:48;9.30;99.90
16970;DHT22;8601;48.718;8.992;2023-11-21T12:46:15;9.20;99.90
16970;DHT22;8601;48.718;8.992;2023-11-21T12:48:43;9.20;99.90
16970;DHT22;8601;48.718;8.992;2023-11-21T12:51:13;9.30;99.90
16970;DHT22;8601;48.718;8.992;2023-11-21T12:53:42;9.20;99.90
16970;DHT22;8601;48.718;8.992;2023-11-21T12:56:10;9.20;99.90
16970;DHT22;8601;48.718;8.992;2023-11-21T12:58:37;9.30;99.90
16970;DHT22;8601;48.718;8.992;2023-11-21T13:01:06;9.30;99.90
16970;DHT22;8601;48.718;8.992;2023-11-21T13:03:37;9.30;99.90
16970;DHT22;8601;48.718;8.992;2023-11-21T13:06:06;9.30;99.90
16970;DHT22;8601;48.718;8.992;2023-11-21T13:08:36;9.30;99.90
16970;DHT22;8601;48.718;8.992;2023-11-21T13:11:05;9.30;99.90
16970;DHT22;8601;48.718;8.992;2023-11-21T13:13:32;9.30;99.90
16970;DHT22;8601;48.718;8.992;2023-11-21T13:16:00;9.30;99.90
16970;DHT22;8601;48.718;8.992;2023-11-21T13:18:30;9.20;99.90
16970;DHT22;8601;48.718;8.992;2023-11-21T13:20:58;9.20;99.90
16970;DHT22;8601;48.718;8.992;2023-11-21T13:23:26;9.30;99.90
16970;DHT22;8601;48.718;8.992;2023-11-21T13:25:56;9.30;99.90
16970;DHT22;8601;48.718;8.992;2023-11-21T13:28:23;9.40;99.90
16970;DHT22;8601;48.718;8.992;2023-11-21T13:30:57;9.40;99.90
16970;DHT22;8601;48.718;8.992;2023-11-21T13:33:28;9.50;99.90
16970;DHT22;8601;48.718;8.992;2023-11-21T13:35:56;9.50;99.90
16970;DHT22;8601;48.718;8.992;2023-11-21T13:38:23;9.50;99.90
16970;DHT22;8601;48.718;8.992;2023-11-21T13:40:51;9.50;99.90
16970;DHT22;8601;48.718;8.992;2023-11-21T13:43:22;9.40;99.90
16970;DHT22;8601;48.718;8.992;2023-11-21T13:45:51;9.20;99.90
16970;DHT22;8601;48.718;8.992;2023-11-21T13:48:25;9.00;99.90
16970;DHT22;8601;48.718;8.992;2023-11-21T13:50:59;9.00;99.90
16970;DHT22;8601;48.718;8.992;2023-11-21T13:53:34;8.90;99.90
16970;DHT22;8601;48.718;8.992;2023-11-21T13:56:03;8.90;99.90
16970;DHT22;8601;48.718;8.992;2023-11-21T13:58:32;8.90;99.90
16970;DHT22;8601;48.718;8.992;2023-11-21T14:01:07;8.80;99.90
16970;DHT22;8601;48.718;8.992;2023-11-21T14:03:42;8.70;99.90
16970;DHT22;8601;48.718;8.992;2023-11-21T14:06:17;8.70;99.90
16970;DHT22;8601;48.718;8.992;2023-11-21T14:08:49;8.70;99.90
16970;DHT22;8601;48.718;8.992;2023-11-21T14:11:16;8.70;99.90
16970;DHT22;8601;48.718;8.992;2023-11-21T14:13:46;8.70;99.90
16970;DHT22;8601;48.718;8.992;2023-11-21T14:16:14;9.20;99.90
16970;DHT22;8601;48.718;8.992;2023-11-21T14:18:42;9.10;99.90
16970;DHT22;8601;48.718;8.992;2023-11-21T14:21:18;8.90;99.90
16970;DHT22;8601;48.718;8.992;2023-11-21T14:23:45;8.80;99.90
16970;DHT22;8601;48.718;8.992;2023-11-21T14:26:12;8.70;99.90
16970;DHT22;8601;48.718;8.992;2023-11-21T14:28:39;8.70;99.90
16970;DHT22;8601;48.718;8.992;2023-11-21T14:31:08;8.60;99.90
16970;DHT22;8601;48.718;8.992;2023-11-21T14:33:38;8.60;99.90
16970;DHT22;8601;48.718;8.992;2023-11-21T14:36:06;9.20;99.90
16970;DHT22;8601;48.718;8.992;2023-11-21T14:38:35;10.10;99.90
16970;DHT22;8601;48.718;8.992;2023-11-21T14:41:03;10.90;99.90
16970;DHT22;8601;48.718;8.992;2023-11-21T14:43:32;10.30;99.90
16970;DHT22;8601;48.718;8.992;2023-11-21T14:46:00;9.80;99.90
16970;DHT22;8601;48.718;8.992;2023-11-21T14:48:30;9.60;99.90
16970;DHT22;8601;48.718;8.992;2023-11-21T14:51:08;9.30;99.90
16970;DHT22;8601;48.718;8.992;2023-11-21T14:53:56;9.10;99.90
16970;DHT22;8601;48.718;8.992;2023-11-21T14:56:26;8.90;99.90
16970;DHT22;8601;48.718;8.992;2023-11-21T14:58:56;10.30;99.90
16970;DHT22;8601;48.718;8.992;2023-11-21T15:01:26;10.90;99.90
16970;DHT22;8601;48.718;8.992;2023-11-21T15:04:20;10.20;99.90
16970;DHT22;8601;48.718;8.992;2023-11-21T15:06:57;9.60;99.90
16970;DHT22;8601;48.718;8.992;2023-11-21T15:09:24;9.20;99.90
16970;DHT22;8601;48.718;8.992;2023-11-21T15:12:02;9.00;99.90
16970;DHT22;8601;48.718;8.992;2023-11-21T15:14:38;8.80;99.90
16970;DHT22;8601;48.718;8.992;2023-11-21T15:17:04;8.80;99.90
16970;DHT22;8601;48.718;8.992;2023-11-21T15:19:34;8.70;99.90
16970;DHT22;8601;48.718;8.992;2023-11-21T15:22:01;8.70;99.90
16970;DHT22;8601;48.718;8.992;2023-11-21T15:24:29;8.70;99.90
16970;DHT22;8601;48.718;8.992;2023-11-21T15:26:56;8.60;99.90
16970;DHT22;8601;48.718;8.992;2023-11-21T15:29:23;8.50;99.90
16970;DHT22;8601;48.718;8.992;2023-11-21T15:31:51;8.50;99.90
16970;DHT22;8601;48.718;8.992;2023-11-21T15:34:21;8.50;99.90
16970;DHT22;8601;48.718;8.992;2023-11-21T15:36:50;8.40;99.90
16970;DHT22;8601;48.718;8.992;2023-11-21T15:39:19;8.40;99.90
16970;DHT22;8601;48.718;8.992;2023-11-21T15:41:49;9.00;99.90
16970;DHT22;8601;48.718;8.992;2023-11-21T15:44:16;8.70;99.90
16970;DHT22;8601;48.718;8.992;2023-11-21T15:46:43;8.50;99.90
16970;DHT22;8601;48.718;8.992;2023-11-21T15:49:11;8.40;99.90
16970;DHT22;8601;48.718;8.992;2023-11-21T15:51:39;8.30;99.90
16970;DHT22;8601;48.718;8.992;2023-11-21T15:54:08;8.30;99.90
16970;DHT22;8601;48.718;8.992;2023-11-21T15:56:36;8.30;99.90
16970;DHT22;8601;48.718;8.992;2023-11-21T15:59:04;8.30;99.90
16970;DHT22;8601;48.718;8.992;2023-11-21T16:01:30;8.40;99.90
16970;DHT22;8601;48.718;8.992;2023-11-21T16:03:57;8.30;99.90
16970;DHT22;8601;48.718;8.992;2023-11-21T16:06:27;8.40;99.90
16970;DHT22;8601;48.718;8.992;2023-11-21T16:08:55;8.30;99.90
16970;DHT22;8601;48.718;8.992;2023-11-21T16:11:25;8.20;99.90
16970;DHT22;8601;48.718;8.992;2023-11-21T16:13:55;8.30;99.90